sensor_id;sensor_type;location;lat;lon;timestamp;temperature;humidity
57833;DHT22;43667;53.036;6.740;2023-02-18T00:00:50;7.00;99.90
57833;DHT22;43667;53.036;6.740;2023-02-18T00:03:16;7.00;99.90
57833;DHT22;43667;53.036;6.740;2023-02-18T00:05:41;7.00;99.90
57833;DHT22;43667;53.036;6.740;2023-02-18T00:08:07;7.00;99.90
57833;DHT22;43667;53.036;6.740;2023-02-18T00:10:32;7.00;99.90
57833;DHT22;43667;53.036;6.740;2023-02-18T00:12:58;7.10;99.90
57833;DHT22;43667;53.036;6.740;2023-02-18T00:15:25;7.10;99.90
57833;DHT22;43667;53.036;6.740;2023-02-18T00:17:51;7.10;99.90
57833;DHT22;43667;53.036;6.740;2023-02-18T00:20:17;7.10;99.90
57833;DHT22;43667;53.036;6.740;2023-02-18T00:22:42;7.10;99.90
57833;DHT22;43667;53.036;6.740;2023-02-18T00:25:08;7.10;99.90
57833;DHT22;43667;53.036;6.740;2023-02-18T00:27:33;7.20;99.90
57833;DHT22;43667;53.036;6.740;2023-02-18T00:29:59;7.20;99.90
57833;DHT22;43667;53.036;6.740;2023-02-18T00:32:25;7.20;99.90
57833;DHT22;43667;53.036;6.740;2023-02-18T00:34:50;7.20;99.90
57833;DHT22;43667;53.036;6.740;2023-02-18T00:37:16;7.10;99.90
57833;DHT22;43667;53.036;6.740;2023-02-18T00:39:41;7.10;99.90
57833;DHT22;43667;53.036;6.740;2023-02-18T00:42:08;7.10;99.90
57833;DHT22;43667;53.036;6.740;2023-02-18T00:44:34;7.10;99.90
57833;DHT22;43667;53.036;6.740;2023-02-18T00:46:59;7.10;99.90
57833;DHT22;43667;53.036;6.740;2023-02-18T00:49:25;7.10;99.90
57833;DHT22;43667;53.036;6.740;2023-02-18T00:51:50;7.00;99.90
57833;DHT22;43667;53.036;6.740;2023-02-18T00:54:16;7.00;99.90
57833;DHT22;43667;53.036;6.740;2023-02-18T00:56:42;7.00;99.90
57833;DHT22;43667;53.036;6.740;2023-02-18T00:59:07;7.00;99.90
57833;DHT22;43667;53.036;6.740;2023-02-18T01:01:33;6.90;99.90
57833;DHT22;43667;53.036;6.740;2023-02-18T01:03:59;6.90;99.90
57833;DHT22;43667;53.036;6.740;2023-02-18T01:06:25;6.90;99.90
57833;DHT22;43667;53.036;6.740;2023-02-18T01:08:51;6.80;99.90
57833;DHT22;43667;53.036;6.740;2023-02-18T01:11:16;6.80;99.90
57833;DHT22;43667;53.036;6.740;2023-02-18T01:13:42;6.70;99.90
57833;DHT22;43667;53.036;6.740;2023-02-18T01:16:08;6.70;99.90
57833;DHT22;43667;53.036;6.740;2023-02-18T01:18:34;6.70;99.90
57833;DHT22;43667;53.036;6.740;2023-02-18T01:21:00;6.70;99.90
57833;DHT22;43667;53.036;6.740;2023-02-18T01:23:26;6.60;99.90
57833;DHT22;43667;53.036;6.740;2023-02-18T01:25:52;6.60;99.90
57833;DHT22;43667;53.036;6.740;2023-02-18T01:28:18;6.60;99.90
57833;DHT22;43667;53.036;6.740;2023-02-18T01:30:45;6.60;99.90
57833;DHT22;43667;53.036;6.740;2023-02-18T01:33:11;6.60;99.90
57833;DHT22;43667;53.036;6.740;2023-02-18T01:35:38;6.70;99.90
57833;DHT22;43667;53.036;6.740;2023-02-18T01:38:04;6.70;99.90
57833;DHT22;43667;53.036;6.740;2023-02-18T01:40:29;6.80;99.90
57833;DHT22;43667;53.036;6.740;2023-02-18T01:42:56;6.80;99.90
57833;DHT22;43667;53.036;6.740;2023-02-18T01:48:16;6.80;99.90
57833;DHT22;43667;53.036;6.740;2023-02-18T01:50:56;6.90;99.90
57833;DHT22;43667;53.036;6.740;2023-02-18T01:53:27;6.90;99.90
57833;DHT22;43667;53.036;6.740;2023-02-18T01:55:52;6.90;99.90
57833;DHT22;43667;53.036;6.740;2023-02-18T01:58:19;6.90;99.90
57833;DHT22;43667;53.036;6.740;2023-02-18T02:00:45;7.00;99.90
57833;DHT22;43667;53.036;6.740;2023-02-18T02:03:10;7.00;99.90
57833;DHT22;43667;53.036;6.740;2023-02-18T02:05:36;7.00;99.90
57833;DHT22;43667;53.036;6.740;2023-02-18T02:08:02;7.00;99.90
57833;DHT22;43667;53.036;6.740;2023-02-18T02:10:52;7.10;99.90
57833;DHT22;43667;53.036;6.740;2023-02-18T02:16:11;7.10;99.90
57833;DHT22;43667;53.036;6.740;2023-02-18T02:19:04;7.10;99.90
57833;DHT22;43667;53.036;6.740;2023-02-18T02:24:28;7.10;99.90
57833;DHT22;43667;53.036;6.740;2023-02-18T02:30:00;7.20;99.90
57833;DHT22;43667;53.036;6.740;2023-02-18T02:41:54;7.10;99.90
57833;DHT22;43667;53.036;6.740;2023-02-18T02:44:31;7.10;99.90
57833;DHT22;43667;53.036;6.740;2023-02-18T02:47:18;7.20;99.90
57833;DHT22;43667;53.036;6.740;2023-02-18T02:52:51;7.20;99.90
57833;DHT22;43667;53.036;6.740;2023-02-18T02:55:17;7.20;99.90
57833;DHT22;43667;53.036;6.740;2023-02-18T02:57:54;7.20;99.90
57833;DHT22;43667;53.036;6.740;2023-02-18T03:03:22;7.20;99.90
57833;DHT22;43667;53.036;6.740;2023-02-18T03:06:20;7.30;99.90
57833;DHT22;43667;53.036;6.740;2023-02-18T03:09:16;7.30;99.90
57833;DHT22;43667;53.036;6.740;2023-02-18T03:14:28;7.40;99.90
57833;DHT22;43667;53.036;6.740;2023-02-18T03:16:58;7.40;99.90
57833;DHT22;43667;53.036;6.740;2023-02-18T03:19:35;7.40;99.90
57833;DHT22;43667;53.036;6.740;2023-02-18T03:22:19;7.40;99.90
57833;DHT22;43667;53.036;6.740;2023-02-18T03:24:49;7.40;99.90
57833;DHT22;43667;53.036;6.740;2023-02-18T03:27:29;7.40;99.90
57833;DHT22;43667;53.036;6.740;2023-02-18T03:30:09;7.40;99.90
57833;DHT22;43667;53.036;6.740;2023-02-18T03:32:36;7.40;99.90
57833;DHT22;43667;53.036;6.740;2023-02-18T03:35:09;7.40;99.90
57833;DHT22;43667;53.036;6.740;2023-02-18T03:37:41;7.50;99.90
57833;DHT22;43667;53.036;6.740;2023-02-18T03:40:09;7.50;99.90
57833;DHT22;43667;53.036;6.740;2023-02-18T03:42:35;7.50;99.90
57833;DHT22;43667;53.036;6.740;2023-02-18T03:45:01;7.50;99.90
57833;DHT22;43667;53.036;6.740;2023-02-18T03:47:27;7.50;99.90
57833;DHT22;43667;53.036;6.740;2023-02-18T03:49:53;7.60;99.90
57833;DHT22;43667;53.036;6.740;2023-02-18T03:52:19;7.60;99.90
57833;DHT22;43667;53.036;6.740;2023-02-18T03:54:44;7.70;99.90
57833;DHT22;43667;53.036;6.740;2023-02-18T03:57:10;7.70;99.90
57833;DHT22;43667;53.036;6.740;2023-02-18T03:59:35;7.70;99.90
57833;DHT22;43667;53.036;6.740;2023-02-18T04:02:01;7.70;99.90
57833;DHT22;43667;53.036;6.740;2023-02-18T04:04:27;7.70;99.90
57833;DHT22;43667;53.036;6.740;2023-02-18T04:06:53;7.80;99.90
57833;DHT22;43667;53.036;6.740;2023-02-18T04:09:18;7.80;99.90
57833;DHT22;43667;53.036;6.740;2023-02-18T04:11:44;7.90;99.90
57833;DHT22;43667;53.036;6.740;2023-02-18T04:14:12;7.90;99.90
57833;DHT22;43667;53.036;6.740;2023-02-18T04:16:38;7.90;99.90
57833;DHT22;43667;53.036;6.740;2023-02-18T04:19:04;7.90;99.90
57833;DHT22;43667;53.036;6.740;2023-02-18T04:21:29;8.00;99.90
57833;DHT22;43667;53.036;6.740;2023-02-18T04:23:55;8.00;99.90
57833;DHT22;43667;53.036;6.740;2023-02-18T04:26:21;8.00;99.90
57833;DHT22;43667;53.036;6.740;2023-02-18T04:28:47;8.00;99.90
57833;DHT22;43667;53.036;6.740;2023-02-18T04:31:13;8.00;99.90
57833;DHT22;43667;53.036;6.740;2023-02-18T04:33:39;8.00;99.90
57833;DHT22;43667;53.036;6.740;2023-02-18T04:36:05;8.00;99.90
57833;DHT22;43667;53.036;6.740;2023-02-18T04:38:31;8.10;99.90
57833;DHT22;43667;53.036;6.740;2023-02-18T04:40:57;8.10;99.90
57833;DHT22;43667;53.036;6.740;2023-02-18T04:43:23;8.10;99.90
57833;DHT22;43667;53.036;6.740;2023-02-18T04:45:49;8.10;99.90
57833;DHT22;43667;53.036;6.740;2023-02-18T04:48:14;8.10;99.90
57833;DHT22;43667;53.036;6.740;2023-02-18T04:50:40;8.10;99.90
57833;DHT22;43667;53.036;6.740;2023-02-18T04:53:05;8.10;99.90
57833;DHT22;43667;53.036;6.740;2023-02-18T04:55:31;8.20;99.90
57833;DHT22;43667;53.036;6.740;2023-02-18T04:57:57;8.20;99.90
57833;DHT22;43667;53.036;6.740;2023-02-18T05:00:22;8.20;99.90
57833;DHT22;43667;53.036;6.740;2023-02-18T05:02:48;8.20;99.90
57833;DHT22;43667;53.036;6.740;2023-02-18T05:05:14;8.20;99.90
57833;DHT22;43667;53.036;6.740;2023-02-18T05:07:40;8.20;99.90
57833;DHT22;43667;53.036;6.740;2023-02-18T05:10:08;8.20;99.90
57833;DHT22;43667;53.036;6.740;2023-02-18T05:12:34;8.20;99.90
57833;DHT22;43667;53.036;6.740;2023-02-18T05:14:59;8.30;99.90
57833;DHT22;43667;53.036;6.740;2023-02-18T05:17:25;8.30;99.90
57833;DHT22;43667;53.036;6.740;2023-02-18T05:19:51;8.30;99.90
57833;DHT22;43667;53.036;6.740;2023-02-18T05:22:16;8.30;99.90
57833;DHT22;43667;53.036;6.740;2023-02-18T05:24:42;8.20;99.90
57833;DHT22;43667;53.036;6.740;2023-02-18T05:27:07;8.30;99.90
57833;DHT22;43667;53.036;6.740;2023-02-18T05:29:33;8.30;99.90
57833;DHT22;43667;53.036;6.740;2023-02-18T05:31:58;8.30;99.90
57833;DHT22;43667;53.036;6.740;2023-02-18T05:34:24;8.30;99.90
57833;DHT22;43667;53.036;6.740;2023-02-18T05:36:49;8.30;99.90
57833;DHT22;43667;53.036;6.740;2023-02-18T05:39:15;8.30;99.90
57833;DHT22;43667;53.036;6.740;2023-02-18T05:41:41;8.30;99.90
57833;DHT22;43667;53.036;6.740;2023-02-18T05:44:06;8.30;99.90
57833;DHT22;43667;53.036;6.740;2023-02-18T05:46:50;8.30;99.90
57833;DHT22;43667;53.036;6.740;2023-02-18T05:49:16;8.40;99.90
57833;DHT22;43667;53.036;6.740;2023-02-18T05:51:41;8.30;99.90
57833;DHT22;43667;53.036;6.740;2023-02-18T05:54:07;8.40;99.90
57833;DHT22;43667;53.036;6.740;2023-02-18T05:56:32;8.40;99.90
57833;DHT22;43667;53.036;6.740;2023-02-18T05:58:58;8.40;99.90
57833;DHT22;43667;53.036;6.740;2023-02-18T06:01:24;8.40;99.90
57833;DHT22;43667;53.036;6.740;2023-02-18T06:03:50;8.40;99.90
57833;DHT22;43667;53.036;6.740;2023-02-18T06:06:15;8.50;99.90
57833;DHT22;43667;53.036;6.740;2023-02-18T06:08:41;8.40;99.90
57833;DHT22;43667;53.036;6.740;2023-02-18T06:11:06;8.50;99.90
57833;DHT22;43667;53.036;6.740;2023-02-18T06:13:32;8.50;99.90
57833;DHT22;43667;53.036;6.740;2023-02-18T06:15:57;8.50;99.90
57833;DHT22;43667;53.036;6.740;2023-02-18T06:18:23;8.60;99.90
57833;DHT22;43667;53.036;6.740;2023-02-18T06:20:49;8.60;99.90
57833;DHT22;43667;53.036;6.740;2023-02-18T06:23:15;8.60;99.90
57833;DHT22;43667;53.036;6.740;2023-02-18T06:25:41;8.70;99.90
57833;DHT22;43667;53.036;6.740;2023-02-18T06:28:07;8.70;99.90
57833;DHT22;43667;53.036;6.740;2023-02-18T06:30:33;8.70;99.90
57833;DHT22;43667;53.036;6.740;2023-02-18T06:32:58;8.70;99.90
57833;DHT22;43667;53.036;6.740;2023-02-18T06:35:24;8.80;99.90
57833;DHT22;43667;53.036;6.740;2023-02-18T06:37:49;8.80;99.90
57833;DHT22;43667;53.036;6.740;2023-02-18T06:40:15;8.90;99.90
57833;DHT22;43667;53.036;6.740;2023-02-18T06:42:42;8.90;99.90
57833;DHT22;43667;53.036;6.740;2023-02-18T06:45:08;8.90;99.90
57833;DHT22;43667;53.036;6.740;2023-02-18T06:47:34;8.90;99.90
57833;DHT22;43667;53.036;6.740;2023-02-18T06:50:00;9.00;99.90
57833;DHT22;43667;53.036;6.740;2023-02-18T06:52:25;9.00;99.90
57833;DHT22;43667;53.036;6.740;2023-02-18T06:54:51;9.00;99.90
57833;DHT22;43667;53.036;6.740;2023-02-18T06:57:17;9.00;99.90
57833;DHT22;43667;53.036;6.740;2023-02-18T06:59:42;9.10;99.90
57833;DHT22;43667;53.036;6.740;2023-02-18T07:02:11;9.10;99.90
57833;DHT22;43667;53.036;6.740;2023-02-18T07:04:37;9.20;99.90
57833;DHT22;43667;53.036;6.740;2023-02-18T07:07:03;9.20;99.90
57833;DHT22;43667;53.036;6.740;2023-02-18T07:09:28;9.30;99.90
57833;DHT22;43667;53.036;6.740;2023-02-18T07:11:54;9.30;99.90
57833;DHT22;43667;53.036;6.740;2023-02-18T07:14:19;9.30;99.90
57833;DHT22;43667;53.036;6.740;2023-02-18T07:16:45;9.30;99.90
57833;DHT22;43667;53.036;6.740;2023-02-18T07:19:11;9.40;99.90
57833;DHT22;43667;53.036;6.740;2023-02-18T07:21:36;9.40;99.90
57833;DHT22;43667;53.036;6.740;2023-02-18T07:24:02;9.40;99.90
57833;DHT22;43667;53.036;6.740;2023-02-18T07:26:28;9.40;99.90
57833;DHT22;43667;53.036;6.740;2023-02-18T07:28:53;9.50;99.90
57833;DHT22;43667;53.036;6.740;2023-02-18T07:31:19;9.50;99.90
57833;DHT22;43667;53.036;6.740;2023-02-18T07:33:44;9.50;99.90
57833;DHT22;43667;53.036;6.740;2023-02-18T07:36:10;9.50;99.90
57833;DHT22;43667;53.036;6.740;2023-02-18T07:38:36;9.50;99.90
57833;DHT22;43667;53.036;6.740;2023-02-18T07:41:01;9.60;99.90
57833;DHT22;43667;53.036;6.740;2023-02-18T07:43:27;9.60;99.90
57833;DHT22;43667;53.036;6.740;2023-02-18T07:45:52;9.60;99.90
57833;DHT22;43667;53.036;6.740;2023-02-18T07:48:18;9.60;99.90
57833;DHT22;43667;53.036;6.740;2023-02-18T07:50:44;9.60;99.90
57833;DHT22;43667;53.036;6.740;2023-02-18T07:53:13;9.60;99.90
57833;DHT22;43667;53.036;6.740;2023-02-18T07:55:39;9.70;99.90
57833;DHT22;43667;53.036;6.740;2023-02-18T07:58:15;9.60;99.90
57833;DHT22;43667;53.036;6.740;2023-02-18T08:00:40;9.60;99.90
57833;DHT22;43667;53.036;6.740;2023-02-18T08:03:06;9.70;99.90
57833;DHT22;43667;53.036;6.740;2023-02-18T08:05:32;9.70;99.90
57833;DHT22;43667;53.036;6.740;2023-02-18T08:07:57;9.70;99.90
57833;DHT22;43667;53.036;6.740;2023-02-18T08:10:23;9.70;99.90
57833;DHT22;43667;53.036;6.740;2023-02-18T08:12:48;9.70;99.90
57833;DHT22;43667;53.036;6.740;2023-02-18T08:15:14;9.60;99.90
57833;DHT22;43667;53.036;6.740;2023-02-18T08:17:39;9.70;99.90
57833;DHT22;43667;53.036;6.740;2023-02-18T08:20:06;9.60;99.90
57833;DHT22;43667;53.036;6.740;2023-02-18T08:22:31;9.60;99.90
57833;DHT22;43667;53.036;6.740;2023-02-18T08:24:57;9.60;99.90
57833;DHT22;43667;53.036;6.740;2023-02-18T08:27:23;9.60;99.90
57833;DHT22;43667;53.036;6.740;2023-02-18T08:29:49;9.60;99.90
57833;DHT22;43667;53.036;6.740;2023-02-18T08:32:14;9.60;99.90
57833;DHT22;43667;53.036;6.740;2023-02-18T08:34:40;9.60;99.90
57833;DHT22;43667;53.036;6.740;2023-02-18T08:37:05;9.60;99.90
57833;DHT22;43667;53.036;6.740;2023-02-18T08:39:34;9.60;99.90
57833;DHT22;43667;53.036;6.740;2023-02-18T08:42:00;9.60;99.90
57833;DHT22;43667;53.036;6.740;2023-02-18T08:44:26;9.60;99.90
57833;DHT22;43667;53.036;6.740;2023-02-18T08:46:52;9.60;99.90
57833;DHT22;43667;53.036;6.740;2023-02-18T08:49:18;9.60;99.90
57833;DHT22;43667;53.036;6.740;2023-02-18T08:51:46;9.60;99.90
57833;DHT22;43667;53.036;6.740;2023-02-18T08:54:12;9.60;99.90
57833;DHT22;43667;53.036;6.740;2023-02-18T08:56:37;9.60;99.90
57833;DHT22;43667;53.036;6.740;2023-02-18T08:59:04;9.60;99.90
57833;DHT22;43667;53.036;6.740;2023-02-18T09:01:30;9.60;99.90
57833;DHT22;43667;53.036;6.740;2023-02-18T09:03:55;9.60;99.90
57833;DHT22;43667;53.036;6.740;2023-02-18T09:06:21;9.60;99.90
57833;DHT22;43667;53.036;6.740;2023-02-18T09:08:47;9.60;99.90
57833;DHT22;43667;53.036;6.740;2023-02-18T09:11:12;9.60;99.90
57833;DHT22;43667;53.036;6.740;2023-02-18T09:13:38;9.60;99.90
57833;DHT22;43667;53.036;6.740;2023-02-18T09:16:11;9.70;99.90
57833;DHT22;43667;53.036;6.740;2023-02-18T09:18:36;9.60;99.90
57833;DHT22;43667;53.036;6.740;2023-02-18T09:21:04;9.60;99.90
57833;DHT22;43667;53.036;6.740;2023-02-18T09:23:31;9.60;99.90
57833;DHT22;43667;53.036;6.740;2023-02-18T09:25:57;9.60;99.90
57833;DHT22;43667;53.036;6.740;2023-02-18T09:28:23;9.60;99.90
57833;DHT22;43667;53.036;6.740;2023-02-18T09:30:49;9.60;99.90
57833;DHT22;43667;53.036;6.740;2023-02-18T09:33:15;9.50;99.90
57833;DHT22;43667;53.036;6.740;2023-02-18T09:35:42;9.50;99.90
57833;DHT22;43667;53.036;6.740;2023-02-18T09:38:09;9.50;99.90
57833;DHT22;43667;53.036;6.740;2023-02-18T09:40:38;9.50;99.90
57833;DHT22;43667;53.036;6.740;2023-02-18T09:43:05;9.50;99.90
57833;DHT22;43667;53.036;6.740;2023-02-18T09:45:31;9.50;99.90
57833;DHT22;43667;53.036;6.740;2023-02-18T09:47:57;9.50;99.90
57833;DHT22;43667;53.036;6.740;2023-02-18T09:50:33;9.50;99.90
57833;DHT22;43667;53.036;6.740;2023-02-18T09:53:01;9.50;99.90
57833;DHT22;43667;53.036;6.740;2023-02-18T09:55:34;9.50;99.90
57833;DHT22;43667;53.036;6.740;2023-02-18T09:58:06;9.50;99.90
57833;DHT22;43667;53.036;6.740;2023-02-18T10:00:43;9.50;99.90
57833;DHT22;43667;53.036;6.740;2023-02-18T10:03:20;9.50;99.90
57833;DHT22;43667;53.036;6.740;2023-02-18T10:06:24;9.50;99.90
57833;DHT22;43667;53.036;6.740;2023-02-18T10:08:47;9.50;99.90
57833;DHT22;43667;53.036;6.740;2023-02-18T10:11:28;9.50;99.90
57833;DHT22;43667;53.036;6.740;2023-02-18T10:13:55;9.50;99.90
57833;DHT22;43667;53.036;6.740;2023-02-18T10:16:23;9.50;99.90
57833;DHT22;43667;53.036;6.740;2023-02-18T10:18:52;9.50;99.90
57833;DHT22;43667;53.036;6.740;2023-02-18T10:21:23;9.50;99.90
57833;DHT22;43667;53.036;6.740;2023-02-18T10:24:05;9.50;99.90
57833;DHT22;43667;53.036;6.740;2023-02-18T10:26:35;9.50;99.90
57833;DHT22;43667;53.036;6.740;2023-02-18T10:29:02;9.60;99.90
57833;DHT22;43667;53.036;6.740;2023-02-18T10:31:32;9.60;99.90
57833;DHT22;43667;53.036;6.740;2023-02-18T10:34:12;9.60;99.90
57833;DHT22;43667;53.036;6.740;2023-02-18T10:36:54;9.70;99.90
57833;DHT22;43667;53.036;6.740;2023-02-18T10:45:25;9.70;99.90
57833;DHT22;43667;53.036;6.740;2023-02-18T10:50:39;9.80;99.90
57833;DHT22;43667;53.036;6.740;2023-02-18T10:53:36;9.80;99.90
57833;DHT22;43667;53.036;6.740;2023-02-18T10:56:05;9.90;99.90
57833;DHT22;43667;53.036;6.740;2023-02-18T10:58:47;10.00;99.90
57833;DHT22;43667;53.036;6.740;2023-02-18T11:01:15;10.00;99.90
57833;DHT22;43667;53.036;6.740;2023-02-18T11:06:31;10.10;99.90
57833;DHT22;43667;53.036;6.740;2023-02-18T11:08:59;10.10;99.90
57833;DHT22;43667;53.036;6.740;2023-02-18T11:11:37;10.20;99.90
57833;DHT22;43667;53.036;6.740;2023-02-18T11:14:08;10.20;99.90
57833;DHT22;43667;53.036;6.740;2023-02-18T11:16:42;10.20;99.90
57833;DHT22;43667;53.036;6.740;2023-02-18T11:19:34;10.30;99.90
57833;DHT22;43667;53.036;6.740;2023-02-18T11:22:38;10.30;99.90
57833;DHT22;43667;53.036;6.740;2023-02-18T11:25:19;10.40;99.90
57833;DHT22;43667;53.036;6.740;2023-02-18T11:27:56;10.50;99.90
57833;DHT22;43667;53.036;6.740;2023-02-18T11:30:31;10.50;99.90
57833;DHT22;43667;53.036;6.740;2023-02-18T11:33:40;10.60;99.90
57833;DHT22;43667;53.036;6.740;2023-02-18T11:38:48;10.60;99.90
57833;DHT22;43667;53.036;6.740;2023-02-18T11:41:17;10.60;99.90
57833;DHT22;43667;53.036;6.740;2023-02-18T11:43:53;10.60;99.90
57833;DHT22;43667;53.036;6.740;2023-02-18T11:46:24;10.70;99.90
57833;DHT22;43667;53.036;6.740;2023-02-18T11:48:51;10.70;99.90
57833;DHT22;43667;53.036;6.740;2023-02-18T11:51:33;10.70;99.90
57833;DHT22;43667;53.036;6.740;2023-02-18T11:56:32;10.70;99.90
57833;DHT22;43667;53.036;6.740;2023-02-18T11:58:59;10.70;99.90
57833;DHT22;43667;53.036;6.740;2023-02-18T12:01:45;10.70;99.90
57833;DHT22;43667;53.036;6.740;2023-02-18T12:04:15;10.70;99.90
57833;DHT22;43667;53.036;6.740;2023-02-18T12:06:49;10.70;99.90
57833;DHT22;43667;53.036;6.740;2023-02-18T12:09:42;10.70;99.90
57833;DHT22;43667;53.036;6.740;2023-02-18T12:14:40;10.70;99.90
57833;DHT22;43667;53.036;6.740;2023-02-18T12:22:57;10.80;99.90
57833;DHT22;43667;53.036;6.740;2023-02-18T12:28:24;10.90;99.90
57833;DHT22;43667;53.036;6.740;2023-02-18T12:31:16;10.90;99.90
57833;DHT22;43667;53.036;6.740;2023-02-18T12:42:19;11.10;99.90
57833;DHT22;43667;53.036;6.740;2023-02-18T12:48:17;11.30;99.90
57833;DHT22;43667;53.036;6.740;2023-02-18T12:54:13;11.50;99.90
57833;DHT22;43667;53.036;6.740;2023-02-18T13:00:35;11.50;99.90
57833;DHT22;43667;53.036;6.740;2023-02-18T13:09:02;11.40;99.90
57833;DHT22;43667;53.036;6.740;2023-02-18T13:11:54;11.40;99.90
57833;DHT22;43667;53.036;6.740;2023-02-18T13:14:32;11.40;99.90
57833;DHT22;43667;53.036;6.740;2023-02-18T13:17:00;11.50;99.90
57833;DHT22;43667;53.036;6.740;2023-02-18T13:19:46;11.50;99.90
57833;DHT22;43667;53.036;6.740;2023-02-18T13:22:15;11.60;99.90
57833;DHT22;43667;53.036;6.740;2023-02-18T13:24:44;11.70;99.90
57833;DHT22;43667;53.036;6.740;2023-02-18T13:30:22;11.70;99.90
57833;DHT22;43667;53.036;6.740;2023-02-18T13:33:21;11.80;99.90
57833;DHT22;43667;53.036;6.740;2023-02-18T13:38:48;11.80;99.90
57833;DHT22;43667;53.036;6.740;2023-02-18T13:41:18;11.80;99.90
57833;DHT22;43667;53.036;6.740;2023-02-18T13:43:44;11.90;99.90
57833;DHT22;43667;53.036;6.740;2023-02-18T13:46:15;11.90;99.90
57833;DHT22;43667;53.036;6.740;2023-02-18T13:51:38;11.90;99.90
57833;DHT22;43667;53.036;6.740;2023-02-18T13:56:45;11.80;99.90
57833;DHT22;43667;53.036;6.740;2023-02-18T13:59:22;11.80;99.90
57833;DHT22;43667;53.036;6.740;2023-02-18T14:01:51;11.80;99.90
57833;DHT22;43667;53.036;6.740;2023-02-18T14:09:59;11.60;99.90
57833;DHT22;43667;53.036;6.740;2023-02-18T14:12:42;11.60;99.90
57833;DHT22;43667;53.036;6.740;2023-02-18T14:20:48;11.50;99.90
57833;DHT22;43667;53.036;6.740;2023-02-18T14:25:52;11.60;99.90
57833;DHT22;43667;53.036;6.740;2023-02-18T14:31:03;11.60;99.90
57833;DHT22;43667;53.036;6.740;2023-02-18T14:33:31;11.50;99.90
57833;DHT22;43667;53.036;6.740;2023-02-18T14:49:07;11.50;99.90
57833;DHT22;43667;53.036;6.740;2023-02-18T14:51:39;11.50;99.90
57833;DHT22;43667;53.036;6.740;2023-02-18T14:54:12;11.50;99.90
57833;DHT22;43667;53.036;6.740;2023-02-18T14:57:04;11.60;99.90
57833;DHT22;43667;53.036;6.740;2023-02-18T14:59:33;11.50;99.90
57833;DHT22;43667;53.036;6.740;2023-02-18T15:01:59;11.50;99.90
57833;DHT22;43667;53.036;6.740;2023-02-18T15:04:25;11.40;99.90
57833;DHT22;43667;53.036;6.740;2023-02-18T15:07:03;11.40;99.90
57833;DHT22;43667;53.036;6.740;2023-02-18T15:09:30;11.40;99.90
57833;DHT22;43667;53.036;6.740;2023-02-18T15:12:00;11.30;99.90
57833;DHT22;43667;53.036;6.740;2023-02-18T15:14:37;11.30;99.90
57833;DHT22;43667;53.036;6.740;2023-02-18T15:17:06;11.30;99.90
57833;DHT22;43667;53.036;6.740;2023-02-18T15:19:45;11.20;99.90
57833;DHT22;43667;53.036;6.740;2023-02-18T15:22:21;11.20;99.90
57833;DHT22;43667;53.036;6.740;2023-02-18T15:24:48;11.20;99.90
57833;DHT22;43667;53.036;6.740;2023-02-18T15:27:17;11.10;99.90
57833;DHT22;43667;53.036;6.740;2023-02-18T15:29:48;11.10;99.90
57833;DHT22;43667;53.036;6.740;2023-02-18T15:32:24;11.00;99.90
57833;DHT22;43667;53.036;6.740;2023-02-18T15:34:56;11.00;99.90
57833;DHT22;43667;53.036;6.740;2023-02-18T15:37:23;10.90;99.90
57833;DHT22;43667;53.036;6.740;2023-02-18T15:39:48;10.90;99.90
57833;DHT22;43667;53.036;6.740;2023-02-18T15:44:49;10.90;99.90
57833;DHT22;43667;53.036;6.740;2023-02-18T15:47:16;10.90;99.90
57833;DHT22;43667;53.036;6.740;2023-02-18T15:49:46;10.80;99.90
57833;DHT22;43667;53.036;6.740;2023-02-18T15:52:13;10.80;99.90
57833;DHT22;43667;53.036;6.740;2023-02-18T15:54:40;10.80;99.90
57833;DHT22;43667;53.036;6.740;2023-02-18T15:57:11;10.80;99.90
57833;DHT22;43667;53.036;6.740;2023-02-18T15:59:44;10.70;99.90
57833;DHT22;43667;53.036;6.740;2023-02-18T16:04:46;10.70;99.90
57833;DHT22;43667;53.036;6.740;2023-02-18T16:07:47;10.60;99.90
57833;DHT22;43667;53.036;6.740;2023-02-18T16:12:57;10.50;99.90
57833;DHT22;43667;53.036;6.740;2023-02-18T16:15:36;10.50;99.90
57833;DHT22;43667;53.036;6.740;2023-02-18T16:18:03;10.40;99.90
57833;DHT22;43667;53.036;6.740;2023-02-18T16:20:34;10.40;99.90
57833;DHT22;43667;53.036;6.740;2023-02-18T16:23:10;10.30;99.90
57833;DHT22;43667;53.036;6.740;2023-02-18T16:25:47;10.30;99.90
57833;DHT22;43667;53.036;6.740;2023-02-18T16:28:23;10.20;99.90
57833;DHT22;43667;53.036;6.740;2023-02-18T16:30:49;10.20;99.90
57833;DHT22;43667;53.036;6.740;2023-02-18T16:33:15;10.10;99.90
57833;DHT22;43667;53.036;6.740;2023-02-18T16:35:41;10.10;99.90
57833;DHT22;43667;53.036;6.740;2023-02-18T16:38:14;10.10;99.90
57833;DHT22;43667;53.036;6.740;2023-02-18T16:40:40;10.10;99.90
57833;DHT22;43667;53.036;6.740;2023-02-18T16:43:16;10.10;99.90
57833;DHT22;43667;53.036;6.740;2023-02-18T16:45:53;10.10;99.90
57833;DHT22;43667;53.036;6.740;2023-02-18T16:48:30;10.00;99.90
57833;DHT22;43667;53.036;6.740;2023-02-18T16:50:59;10.00;99.90
57833;DHT22;43667;53.036;6.740;2023-02-18T16:53:25;9.90;99.90
57833;DHT22;43667;53.036;6.740;2023-02-18T16:55:51;9.90;99.90
57833;DHT22;43667;53.036;6.740;2023-02-18T16:58:16;9.90;99.90
57833;DHT22;43667;53.036;6.740;2023-02-18T17:00:43;9.90;99.90
57833;DHT22;43667;53.036;6.740;2023-02-18T17:03:11;9.90;99.90
57833;DHT22;43667;53.036;6.740;2023-02-18T17:05:37;9.90;99.90
57833;DHT22;43667;53.036;6.740;2023-02-18T17:08:20;9.90;99.90
57833;DHT22;43667;53.036;6.740;2023-02-18T17:10:49;9.90;99.90
57833;DHT22;43667;53.036;6.740;2023-02-18T17:13:23;9.80;99.90
57833;DHT22;43667;53.036;6.740;2023-02-18T17:15:51;9.80;99.90
57833;DHT22;43667;53.036;6.740;2023-02-18T17:18:17;9.80;99.90
57833;DHT22;43667;53.036;6.740;2023-02-18T17:20:43;9.70;99.90
57833;DHT22;43667;53.036;6.740;2023-02-18T17:23:13;9.70;99.90
57833;DHT22;43667;53.036;6.740;2023-02-18T17:25:39;9.70;99.90
57833;DHT22;43667;53.036;6.740;2023-02-18T17:28:06;9.70;99.90
57833;DHT22;43667;53.036;6.740;2023-02-18T17:30:35;9.70;99.90
57833;DHT22;43667;53.036;6.740;2023-02-18T17:33:02;9.70;99.90
57833;DHT22;43667;53.036;6.740;2023-02-18T17:35:28;9.70;99.90
57833;DHT22;43667;53.036;6.740;2023-02-18T17:37:54;9.60;99.90
57833;DHT22;43667;53.036;6.740;2023-02-18T17:40:22;9.60;99.90
57833;DHT22;43667;53.036;6.740;2023-02-18T17:42:49;9.60;99.90
57833;DHT22;43667;53.036;6.740;2023-02-18T17:45:32;9.60;99.90
57833;DHT22;43667;53.036;6.740;2023-02-18T17:47:59;9.60;99.90
57833;DHT22;43667;53.036;6.740;2023-02-18T17:50:26;9.60;99.90
57833;DHT22;43667;53.036;6.740;2023-02-18T17:52:52;9.60;99.90
57833;DHT22;43667;53.036;6.740;2023-02-18T17:55:23;9.60;99.90
57833;DHT22;43667;53.036;6.740;2023-02-18T17:57:50;9.60;99.90
57833;DHT22;43667;53.036;6.740;2023-02-18T18:00:25;9.60;99.90
57833;DHT22;43667;53.036;6.740;2023-02-18T18:02:51;9.50;99.90
57833;DHT22;43667;53.036;6.740;2023-02-18T18:05:24;9.50;99.90
57833;DHT22;43667;53.036;6.740;2023-02-18T18:07:50;9.50;99.90